Terminal Aerodrome Forecast
Issued by NWS Charleston, WV

Current Version | Previous Version | Graphics & Text | Print | Product List | Glossary On
Versions: 1 2 3 4 5 6 7 8 9 10 11 12 13 14 15 16 17 18 19 20 21 22 23 24
103
FTUS41 KRLX 140528
TAFPKB
TAF
KPKB 140528Z 1406/1506 25011G27KT P6SM OVC025
     FM141000 28014G22KT P6SM OVC020
     FM141200 29011G18KT P6SM BKN020
     FM141400 30008KT P6SM BKN020
     FM142200 00000KT P6SM BKN045=

USA.gov is the U.S. government's official web portal to all federal, state and local government web resources and services.